sensor_id;sensor_type;location;lat;lon;timestamp;temperature;humidity
22925;DHT22;11628;51.072;3.712;2023-07-02T00:00:00;18.60;99.90
22925;DHT22;11628;51.072;3.712;2023-07-02T00:02:26;18.60;99.90
22925;DHT22;11628;51.072;3.712;2023-07-02T00:04:52;18.60;99.90
22925;DHT22;11628;51.072;3.712;2023-07-02T00:07:18;18.60;99.90
22925;DHT22;11628;51.072;3.712;2023-07-02T00:09:43;18.60;99.90
22925;DHT22;11628;51.072;3.712;2023-07-02T00:12:09;18.50;99.90
22925;DHT22;11628;51.072;3.712;2023-07-02T00:14:36;18.50;99.90
22925;DHT22;11628;51.072;3.712;2023-07-02T00:17:01;18.40;99.90
22925;DHT22;11628;51.072;3.712;2023-07-02T00:19:27;18.50;99.90
22925;DHT22;11628;51.072;3.712;2023-07-02T00:21:53;18.60;99.90
22925;DHT22;11628;51.072;3.712;2023-07-02T00:24:19;18.50;99.90
22925;DHT22;11628;51.072;3.712;2023-07-02T00:26:44;18.50;99.90
22925;DHT22;11628;51.072;3.712;2023-07-02T00:29:11;18.60;99.90
22925;DHT22;11628;51.072;3.712;2023-07-02T00:31:36;18.60;99.90
22925;DHT22;11628;51.072;3.712;2023-07-02T00:34:02;18.50;99.90
22925;DHT22;11628;51.072;3.712;2023-07-02T00:36:29;18.50;99.90
22925;DHT22;11628;51.072;3.712;2023-07-02T00:38:55;18.50;99.90
22925;DHT22;11628;51.072;3.712;2023-07-02T00:41:21;18.50;99.90
22925;DHT22;11628;51.072;3.712;2023-07-02T00:43:46;18.40;99.90
22925;DHT22;11628;51.072;3.712;2023-07-02T00:46:19;18.40;99.90
22925;DHT22;11628;51.072;3.712;2023-07-02T00:48:50;18.40;99.90
22925;DHT22;11628;51.072;3.712;2023-07-02T00:51:26;18.40;99.90
22925;DHT22;11628;51.072;3.712;2023-07-02T00:53:54;18.40;99.90
22925;DHT22;11628;51.072;3.712;2023-07-02T00:56:21;18.40;99.90
22925;DHT22;11628;51.072;3.712;2023-07-02T00:58:48;18.40;99.90
22925;DHT22;11628;51.072;3.712;2023-07-02T01:01:20;18.30;99.90
22925;DHT22;11628;51.072;3.712;2023-07-02T01:03:57;18.30;99.90
22925;DHT22;11628;51.072;3.712;2023-07-02T01:06:29;18.20;99.90
22925;DHT22;11628;51.072;3.712;2023-07-02T01:08:56;18.20;99.90
22925;DHT22;11628;51.072;3.712;2023-07-02T01:11:26;18.20;99.90
22925;DHT22;11628;51.072;3.712;2023-07-02T01:13:56;18.30;99.90
22925;DHT22;11628;51.072;3.712;2023-07-02T01:16:23;18.20;99.90
22925;DHT22;11628;51.072;3.712;2023-07-02T01:18:50;18.20;99.90
22925;DHT22;11628;51.072;3.712;2023-07-02T01:21:21;18.20;99.90
22925;DHT22;11628;51.072;3.712;2023-07-02T01:23:47;18.20;99.90
22925;DHT22;11628;51.072;3.712;2023-07-02T01:26:13;18.20;99.90
22925;DHT22;11628;51.072;3.712;2023-07-02T01:28:39;18.10;99.90
22925;DHT22;11628;51.072;3.712;2023-07-02T01:31:05;18.10;99.90
22925;DHT22;11628;51.072;3.712;2023-07-02T01:33:31;18.00;99.90
22925;DHT22;11628;51.072;3.712;2023-07-02T01:35:57;18.10;99.90
22925;DHT22;11628;51.072;3.712;2023-07-02T01:38:22;18.00;99.90
22925;DHT22;11628;51.072;3.712;2023-07-02T01:40:48;18.00;99.90
22925;DHT22;11628;51.072;3.712;2023-07-02T01:43:14;18.00;99.90
22925;DHT22;11628;51.072;3.712;2023-07-02T01:45:41;17.90;99.90
22925;DHT22;11628;51.072;3.712;2023-07-02T01:48:07;17.90;99.90
22925;DHT22;11628;51.072;3.712;2023-07-02T01:50:33;17.80;99.90
22925;DHT22;11628;51.072;3.712;2023-07-02T01:52:59;17.80;99.90
22925;DHT22;11628;51.072;3.712;2023-07-02T01:55:25;17.70;99.90
22925;DHT22;11628;51.072;3.712;2023-07-02T01:57:50;17.70;99.90
22925;DHT22;11628;51.072;3.712;2023-07-02T02:00:16;17.70;99.90
22925;DHT22;11628;51.072;3.712;2023-07-02T02:02:43;17.60;99.90
22925;DHT22;11628;51.072;3.712;2023-07-02T02:05:09;17.60;99.90
22925;DHT22;11628;51.072;3.712;2023-07-02T02:07:36;17.60;99.90
22925;DHT22;11628;51.072;3.712;2023-07-02T02:10:03;17.50;99.90
22925;DHT22;11628;51.072;3.712;2023-07-02T02:12:30;17.60;99.90
22925;DHT22;11628;51.072;3.712;2023-07-02T02:14:56;17.60;99.90
22925;DHT22;11628;51.072;3.712;2023-07-02T02:17:22;17.60;99.90
22925;DHT22;11628;51.072;3.712;2023-07-02T02:19:49;17.60;99.90
22925;DHT22;11628;51.072;3.712;2023-07-02T02:22:15;17.60;99.90
22925;DHT22;11628;51.072;3.712;2023-07-02T02:24:41;17.60;99.90
22925;DHT22;11628;51.072;3.712;2023-07-02T02:27:07;17.60;99.90
22925;DHT22;11628;51.072;3.712;2023-07-02T02:29:32;17.60;99.90
22925;DHT22;11628;51.072;3.712;2023-07-02T02:31:58;17.50;99.90
22925;DHT22;11628;51.072;3.712;2023-07-02T02:34:24;17.60;99.90
22925;DHT22;11628;51.072;3.712;2023-07-02T02:36:49;17.50;99.90
22925;DHT22;11628;51.072;3.712;2023-07-02T02:39:15;17.50;99.90
22925;DHT22;11628;51.072;3.712;2023-07-02T02:41:41;17.60;99.90
22925;DHT22;11628;51.072;3.712;2023-07-02T02:44:06;17.60;99.90
22925;DHT22;11628;51.072;3.712;2023-07-02T02:46:33;17.60;99.90
22925;DHT22;11628;51.072;3.712;2023-07-02T02:48:58;17.60;99.90
22925;DHT22;11628;51.072;3.712;2023-07-02T02:51:24;17.60;99.90
22925;DHT22;11628;51.072;3.712;2023-07-02T02:53:49;17.60;99.90
22925;DHT22;11628;51.072;3.712;2023-07-02T02:56:15;17.60;99.90
22925;DHT22;11628;51.072;3.712;2023-07-02T02:58:41;17.60;99.90
22925;DHT22;11628;51.072;3.712;2023-07-02T03:01:07;17.60;99.90
22925;DHT22;11628;51.072;3.712;2023-07-02T03:03:40;17.60;99.90
22925;DHT22;11628;51.072;3.712;2023-07-02T03:06:12;17.60;99.90
22925;DHT22;11628;51.072;3.712;2023-07-02T03:08:39;17.50;99.90
22925;DHT22;11628;51.072;3.712;2023-07-02T03:11:04;17.40;99.90
22925;DHT22;11628;51.072;3.712;2023-07-02T03:13:30;17.50;99.90
22925;DHT22;11628;51.072;3.712;2023-07-02T03:15:56;17.50;99.90
22925;DHT22;11628;51.072;3.712;2023-07-02T03:18:22;17.40;99.90
22925;DHT22;11628;51.072;3.712;2023-07-02T03:20:47;17.40;99.90
22925;DHT22;11628;51.072;3.712;2023-07-02T03:23:13;17.40;99.90
22925;DHT22;11628;51.072;3.712;2023-07-02T03:25:39;17.40;99.90
22925;DHT22;11628;51.072;3.712;2023-07-02T03:28:04;17.30;99.90
22925;DHT22;11628;51.072;3.712;2023-07-02T03:30:30;17.30;99.90
22925;DHT22;11628;51.072;3.712;2023-07-02T03:32:57;17.40;99.90
22925;DHT22;11628;51.072;3.712;2023-07-02T03:35:23;17.40;99.90
22925;DHT22;11628;51.072;3.712;2023-07-02T03:37:49;17.40;99.90
22925;DHT22;11628;51.072;3.712;2023-07-02T03:40:14;17.40;99.90
22925;DHT22;11628;51.072;3.712;2023-07-02T03:42:40;17.40;99.90
22925;DHT22;11628;51.072;3.712;2023-07-02T03:45:06;17.50;99.90
22925;DHT22;11628;51.072;3.712;2023-07-02T03:47:32;17.50;99.90
22925;DHT22;11628;51.072;3.712;2023-07-02T03:49:57;17.50;99.90
22925;DHT22;11628;51.072;3.712;2023-07-02T03:52:23;17.50;99.90
22925;DHT22;11628;51.072;3.712;2023-07-02T03:54:49;17.50;99.90
22925;DHT22;11628;51.072;3.712;2023-07-02T03:57:14;17.50;99.90
22925;DHT22;11628;51.072;3.712;2023-07-02T03:59:40;17.50;99.90
22925;DHT22;11628;51.072;3.712;2023-07-02T04:02:06;17.50;99.90
22925;DHT22;11628;51.072;3.712;2023-07-02T04:04:32;17.40;99.90
22925;DHT22;11628;51.072;3.712;2023-07-02T04:06:57;17.50;99.90
22925;DHT22;11628;51.072;3.712;2023-07-02T04:09:23;17.40;99.90
22925;DHT22;11628;51.072;3.712;2023-07-02T04:11:49;17.50;99.90
22925;DHT22;11628;51.072;3.712;2023-07-02T04:14:14;17.50;99.90
22925;DHT22;11628;51.072;3.712;2023-07-02T04:16:40;17.50;99.90
22925;DHT22;11628;51.072;3.712;2023-07-02T04:19:06;17.40;99.90
22925;DHT22;11628;51.072;3.712;2023-07-02T04:21:32;17.50;99.90
22925;DHT22;11628;51.072;3.712;2023-07-02T04:23:57;17.60;99.90
22925;DHT22;11628;51.072;3.712;2023-07-02T04:26:23;17.60;99.90
22925;DHT22;11628;51.072;3.712;2023-07-02T04:28:53;17.70;99.90
22925;DHT22;11628;51.072;3.712;2023-07-02T04:31:18;17.70;99.90
22925;DHT22;11628;51.072;3.712;2023-07-02T04:33:44;17.60;99.90
22925;DHT22;11628;51.072;3.712;2023-07-02T04:36:10;17.70;99.90
22925;DHT22;11628;51.072;3.712;2023-07-02T04:38:36;17.60;99.90
22925;DHT22;11628;51.072;3.712;2023-07-02T04:41:01;17.60;99.90
22925;DHT22;11628;51.072;3.712;2023-07-02T04:43:31;17.60;99.90
22925;DHT22;11628;51.072;3.712;2023-07-02T04:45:58;17.70;99.90
22925;DHT22;11628;51.072;3.712;2023-07-02T04:48:24;17.70;99.90
22925;DHT22;11628;51.072;3.712;2023-07-02T04:50:50;17.80;99.90
22925;DHT22;11628;51.072;3.712;2023-07-02T04:53:16;17.80;99.90
22925;DHT22;11628;51.072;3.712;2023-07-02T04:55:42;17.90;99.90
22925;DHT22;11628;51.072;3.712;2023-07-02T04:58:08;17.90;99.90
22925;DHT22;11628;51.072;3.712;2023-07-02T05:00:34;17.90;99.90
22925;DHT22;11628;51.072;3.712;2023-07-02T05:03:00;17.90;99.90
22925;DHT22;11628;51.072;3.712;2023-07-02T05:05:25;18.00;99.90
22925;DHT22;11628;51.072;3.712;2023-07-02T05:07:51;18.00;99.90
22925;DHT22;11628;51.072;3.712;2023-07-02T05:10:17;18.10;99.90
22925;DHT22;11628;51.072;3.712;2023-07-02T05:12:42;18.20;99.90
22925;DHT22;11628;51.072;3.712;2023-07-02T05:15:08;18.20;99.90
22925;DHT22;11628;51.072;3.712;2023-07-02T05:17:34;18.30;99.90
22925;DHT22;11628;51.072;3.712;2023-07-02T05:20:03;18.30;99.90
22925;DHT22;11628;51.072;3.712;2023-07-02T05:22:30;18.50;99.90
22925;DHT22;11628;51.072;3.712;2023-07-02T05:24:55;18.60;99.90
22925;DHT22;11628;51.072;3.712;2023-07-02T05:27:21;18.70;99.90
22925;DHT22;11628;51.072;3.712;2023-07-02T05:29:47;18.80;99.90
22925;DHT22;11628;51.072;3.712;2023-07-02T05:32:12;18.80;99.90
22925;DHT22;11628;51.072;3.712;2023-07-02T05:34:38;18.70;99.90
22925;DHT22;11628;51.072;3.712;2023-07-02T05:37:05;18.80;99.90
22925;DHT22;11628;51.072;3.712;2023-07-02T05:39:33;19.00;99.90
22925;DHT22;11628;51.072;3.712;2023-07-02T05:41:58;19.20;99.90
22925;DHT22;11628;51.072;3.712;2023-07-02T05:44:24;19.30;99.90
22925;DHT22;11628;51.072;3.712;2023-07-02T05:46:50;19.40;99.90
22925;DHT22;11628;51.072;3.712;2023-07-02T05:49:15;19.40;99.90
22925;DHT22;11628;51.072;3.712;2023-07-02T05:51:41;19.50;99.90
22925;DHT22;11628;51.072;3.712;2023-07-02T05:54:07;19.60;99.90
22925;DHT22;11628;51.072;3.712;2023-07-02T05:56:32;19.60;99.90
22925;DHT22;11628;51.072;3.712;2023-07-02T05:58:58;19.70;99.90
22925;DHT22;11628;51.072;3.712;2023-07-02T06:01:24;19.90;99.90
22925;DHT22;11628;51.072;3.712;2023-07-02T06:03:50;20.00;99.90
22925;DHT22;11628;51.072;3.712;2023-07-02T06:06:16;20.10;99.90
22925;DHT22;11628;51.072;3.712;2023-07-02T06:08:42;20.00;99.90
22925;DHT22;11628;51.072;3.712;2023-07-02T06:11:09;20.10;99.90
22925;DHT22;11628;51.072;3.712;2023-07-02T06:13:34;20.40;99.90
22925;DHT22;11628;51.072;3.712;2023-07-02T06:16:00;20.50;99.90
22925;DHT22;11628;51.072;3.712;2023-07-02T06:18:26;20.70;99.90
22925;DHT22;11628;51.072;3.712;2023-07-02T06:20:51;20.70;99.90
22925;DHT22;11628;51.072;3.712;2023-07-02T06:23:17;20.70;99.90
22925;DHT22;11628;51.072;3.712;2023-07-02T06:25:43;20.80;99.90
22925;DHT22;11628;51.072;3.712;2023-07-02T06:28:09;20.80;99.90
22925;DHT22;11628;51.072;3.712;2023-07-02T06:30:35;20.80;99.90
22925;DHT22;11628;51.072;3.712;2023-07-02T06:33:01;20.90;99.90
22925;DHT22;11628;51.072;3.712;2023-07-02T06:35:26;21.00;99.90
22925;DHT22;11628;51.072;3.712;2023-07-02T06:37:52;21.20;99.90
22925;DHT22;11628;51.072;3.712;2023-07-02T06:40:18;21.40;99.90
22925;DHT22;11628;51.072;3.712;2023-07-02T06:42:43;21.50;99.90
22925;DHT22;11628;51.072;3.712;2023-07-02T06:45:09;21.60;99.90
22925;DHT22;11628;51.072;3.712;2023-07-02T06:47:35;21.70;99.90
22925;DHT22;11628;51.072;3.712;2023-07-02T06:50:00;21.80;99.90
22925;DHT22;11628;51.072;3.712;2023-07-02T06:52:26;22.00;99.90
22925;DHT22;11628;51.072;3.712;2023-07-02T06:54:52;22.10;99.90
22925;DHT22;11628;51.072;3.712;2023-07-02T06:57:17;22.30;99.90
22925;DHT22;11628;51.072;3.712;2023-07-02T06:59:43;22.20;99.90
22925;DHT22;11628;51.072;3.712;2023-07-02T07:02:10;21.90;99.90
22925;DHT22;11628;51.072;3.712;2023-07-02T07:04:36;22.00;99.90
22925;DHT22;11628;51.072;3.712;2023-07-02T07:07:02;22.20;99.90
22925;DHT22;11628;51.072;3.712;2023-07-02T07:09:30;22.10;99.90
22925;DHT22;11628;51.072;3.712;2023-07-02T07:11:56;22.40;99.90
22925;DHT22;11628;51.072;3.712;2023-07-02T07:14:22;22.40;99.90
22925;DHT22;11628;51.072;3.712;2023-07-02T07:16:48;22.70;99.90
22925;DHT22;11628;51.072;3.712;2023-07-02T07:19:14;23.10;99.90
22925;DHT22;11628;51.072;3.712;2023-07-02T07:21:39;23.40;99.90
22925;DHT22;11628;51.072;3.712;2023-07-02T07:24:06;23.50;99.90
22925;DHT22;11628;51.072;3.712;2023-07-02T07:26:32;23.20;99.90
22925;DHT22;11628;51.072;3.712;2023-07-02T07:28:57;23.00;99.90
22925;DHT22;11628;51.072;3.712;2023-07-02T07:31:24;23.10;99.90
22925;DHT22;11628;51.072;3.712;2023-07-02T07:33:50;23.20;99.90
22925;DHT22;11628;51.072;3.712;2023-07-02T07:36:15;22.90;99.90
22925;DHT22;11628;51.072;3.712;2023-07-02T07:38:43;23.00;99.90
22925;DHT22;11628;51.072;3.712;2023-07-02T07:41:09;22.60;99.90
22925;DHT22;11628;51.072;3.712;2023-07-02T07:43:34;22.50;99.90
22925;DHT22;11628;51.072;3.712;2023-07-02T07:46:00;22.80;99.90
22925;DHT22;11628;51.072;3.712;2023-07-02T07:48:26;23.20;99.90
22925;DHT22;11628;51.072;3.712;2023-07-02T07:50:52;22.50;99.90
22925;DHT22;11628;51.072;3.712;2023-07-02T07:53:18;22.40;99.90
22925;DHT22;11628;51.072;3.712;2023-07-02T07:55:43;22.20;99.90
22925;DHT22;11628;51.072;3.712;2023-07-02T07:58:09;22.10;99.90
22925;DHT22;11628;51.072;3.712;2023-07-02T08:00:35;22.50;99.90
22925;DHT22;11628;51.072;3.712;2023-07-02T08:03:01;22.50;99.90
22925;DHT22;11628;51.072;3.712;2023-07-02T08:05:30;22.50;99.90
22925;DHT22;11628;51.072;3.712;2023-07-02T08:07:55;22.40;99.90
22925;DHT22;11628;51.072;3.712;2023-07-02T08:10:21;22.60;99.90
22925;DHT22;11628;51.072;3.712;2023-07-02T08:12:47;22.90;99.90
22925;DHT22;11628;51.072;3.712;2023-07-02T08:15:14;22.40;99.90
22925;DHT22;11628;51.072;3.712;2023-07-02T08:17:39;22.50;99.90
22925;DHT22;11628;51.072;3.712;2023-07-02T08:20:05;22.70;99.90
22925;DHT22;11628;51.072;3.712;2023-07-02T08:22:37;22.70;99.90
22925;DHT22;11628;51.072;3.712;2023-07-02T08:25:02;22.70;99.90
22925;DHT22;11628;51.072;3.712;2023-07-02T08:27:28;22.90;99.90
22925;DHT22;11628;51.072;3.712;2023-07-02T08:29:54;23.00;99.90
22925;DHT22;11628;51.072;3.712;2023-07-02T08:32:20;23.20;99.90
22925;DHT22;11628;51.072;3.712;2023-07-02T08:34:46;23.20;99.90
22925;DHT22;11628;51.072;3.712;2023-07-02T08:37:12;22.70;99.90
22925;DHT22;11628;51.072;3.712;2023-07-02T08:39:38;22.80;99.90
22925;DHT22;11628;51.072;3.712;2023-07-02T08:42:05;22.80;99.90
22925;DHT22;11628;51.072;3.712;2023-07-02T08:44:31;23.10;99.90
22925;DHT22;11628;51.072;3.712;2023-07-02T08:46:58;23.20;99.90
22925;DHT22;11628;51.072;3.712;2023-07-02T08:49:24;23.10;99.90
22925;DHT22;11628;51.072;3.712;2023-07-02T08:51:50;22.70;99.90
22925;DHT22;11628;51.072;3.712;2023-07-02T08:54:19;22.80;99.90
22925;DHT22;11628;51.072;3.712;2023-07-02T08:56:46;22.70;99.90
22925;DHT22;11628;51.072;3.712;2023-07-02T08:59:12;22.50;99.90
22925;DHT22;11628;51.072;3.712;2023-07-02T09:01:48;22.40;99.90
22925;DHT22;11628;51.072;3.712;2023-07-02T09:04:22;22.60;99.90
22925;DHT22;11628;51.072;3.712;2023-07-02T09:07:08;22.70;99.90
22925;DHT22;11628;51.072;3.712;2023-07-02T09:09:47;22.90;99.90
22925;DHT22;11628;51.072;3.712;2023-07-02T09:12:30;23.70;99.90
22925;DHT22;11628;51.072;3.712;2023-07-02T09:15:04;24.10;99.90
22925;DHT22;11628;51.072;3.712;2023-07-02T09:17:38;24.60;99.90
22925;DHT22;11628;51.072;3.712;2023-07-02T09:20:05;24.70;99.90
22925;DHT22;11628;51.072;3.712;2023-07-02T09:22:34;24.60;99.90
22925;DHT22;11628;51.072;3.712;2023-07-02T09:25:01;24.40;99.90
22925;DHT22;11628;51.072;3.712;2023-07-02T09:30:12;25.80;99.90
22925;DHT22;11628;51.072;3.712;2023-07-02T09:32:39;26.40;99.90
22925;DHT22;11628;51.072;3.712;2023-07-02T09:35:05;27.40;99.90
22925;DHT22;11628;51.072;3.712;2023-07-02T09:37:32;29.80;94.50
22925;DHT22;11628;51.072;3.712;2023-07-02T09:39:58;30.60;90.70
22925;DHT22;11628;51.072;3.712;2023-07-02T09:42:25;30.90;89.20
22925;DHT22;11628;51.072;3.712;2023-07-02T09:44:52;29.00;90.50
22925;DHT22;11628;51.072;3.712;2023-07-02T09:47:19;27.90;91.70
22925;DHT22;11628;51.072;3.712;2023-07-02T09:49:54;28.80;91.70
22925;DHT22;11628;51.072;3.712;2023-07-02T09:52:21;29.40;90.80
22925;DHT22;11628;51.072;3.712;2023-07-02T09:54:47;28.50;89.00
22925;DHT22;11628;51.072;3.712;2023-07-02T09:57:13;27.30;88.90
22925;DHT22;11628;51.072;3.712;2023-07-02T09:59:39;26.50;90.50
22925;DHT22;11628;51.072;3.712;2023-07-02T10:02:05;26.60;90.60
22925;DHT22;11628;51.072;3.712;2023-07-02T10:04:42;27.20;90.80
22925;DHT22;11628;51.072;3.712;2023-07-02T10:07:09;29.80;88.30
22925;DHT22;11628;51.072;3.712;2023-07-02T10:12:01;34.00;78.40
22925;DHT22;11628;51.072;3.712;2023-07-02T10:14:39;35.40;72.20
22925;DHT22;11628;51.072;3.712;2023-07-02T10:17:05;34.00;71.60
22925;DHT22;11628;51.072;3.712;2023-07-02T10:19:30;31.60;74.10
22925;DHT22;11628;51.072;3.712;2023-07-02T10:22:03;28.80;77.90
22925;DHT22;11628;51.072;3.712;2023-07-02T10:24:29;27.70;81.60
22925;DHT22;11628;51.072;3.712;2023-07-02T10:26:57;27.70;82.60
22925;DHT22;11628;51.072;3.712;2023-07-02T10:29:24;27.30;83.90
22925;DHT22;11628;51.072;3.712;2023-07-02T10:31:51;27.40;83.70
22925;DHT22;11628;51.072;3.712;2023-07-02T10:34:30;26.90;84.40
22925;DHT22;11628;51.072;3.712;2023-07-02T10:36:56;29.30;82.50
22925;DHT22;11628;51.072;3.712;2023-07-02T10:39:22;32.50;78.50
22925;DHT22;11628;51.072;3.712;2023-07-02T10:41:48;35.00;70.40
22925;DHT22;11628;51.072;3.712;2023-07-02T10:44:15;33.70;70.40
22925;DHT22;11628;51.072;3.712;2023-07-02T10:46:45;33.40;71.60
22925;DHT22;11628;51.072;3.712;2023-07-02T10:49:11;34.40;69.30
22925;DHT22;11628;51.072;3.712;2023-07-02T10:51:37;34.30;68.00
22925;DHT22;11628;51.072;3.712;2023-07-02T10:54:03;34.00;68.20
22925;DHT22;11628;51.072;3.712;2023-07-02T10:56:31;34.50;68.70
22925;DHT22;11628;51.072;3.712;2023-07-02T10:58:57;36.50;64.80
22925;DHT22;11628;51.072;3.712;2023-07-02T11:01:30;38.00;63.30
22925;DHT22;11628;51.072;3.712;2023-07-02T11:03:58;36.00;62.60
22925;DHT22;11628;51.072;3.712;2023-07-02T11:06:25;36.30;63.50
22925;DHT22;11628;51.072;3.712;2023-07-02T11:08:51;37.50;62.90
22925;DHT22;11628;51.072;3.712;2023-07-02T11:11:17;37.40;61.00
22925;DHT22;11628;51.072;3.712;2023-07-02T11:13:47;36.40;60.70
22925;DHT22;11628;51.072;3.712;2023-07-02T11:16:25;35.20;62.20
22925;DHT22;11628;51.072;3.712;2023-07-02T11:19:07;34.20;64.00
22925;DHT22;11628;51.072;3.712;2023-07-02T11:21:34;35.20;64.40
22925;DHT22;11628;51.072;3.712;2023-07-02T11:24:03;37.10;60.20
22925;DHT22;11628;51.072;3.712;2023-07-02T11:26:38;39.40;58.10
22925;DHT22;11628;51.072;3.712;2023-07-02T11:29:07;40.00;56.50
22925;DHT22;11628;51.072;3.712;2023-07-02T11:31:36;38.10;56.40
22925;DHT22;11628;51.072;3.712;2023-07-02T11:34:10;35.60;58.00
22925;DHT22;11628;51.072;3.712;2023-07-02T11:36:36;32.90;60.60
22925;DHT22;11628;51.072;3.712;2023-07-02T11:39:02;30.20;65.70
22925;DHT22;11628;51.072;3.712;2023-07-02T11:41:40;30.80;66.80
22925;DHT22;11628;51.072;3.712;2023-07-02T11:44:06;33.70;63.30
22925;DHT22;11628;51.072;3.712;2023-07-02T11:46:32;33.60;61.50
22925;DHT22;11628;51.072;3.712;2023-07-02T11:49:00;33.70;63.10
22925;DHT22;11628;51.072;3.712;2023-07-02T11:51:26;35.70;59.70
22925;DHT22;11628;51.072;3.712;2023-07-02T11:53:52;38.10;58.10
22925;DHT22;11628;51.072;3.712;2023-07-02T11:56:17;40.40;55.50
22925;DHT22;11628;51.072;3.712;2023-07-02T11:58:43;41.50;53.90
22925;DHT22;11628;51.072;3.712;2023-07-02T12:01:09;41.30;54.00
22925;DHT22;11628;51.072;3.712;2023-07-02T12:03:35;39.90;54.00
22925;DHT22;11628;51.072;3.712;2023-07-02T12:06:01;38.30;55.50
22925;DHT22;11628;51.072;3.712;2023-07-02T12:08:26;37.50;55.70
22925;DHT22;11628;51.072;3.712;2023-07-02T12:10:52;37.20;55.40
22925;DHT22;11628;51.072;3.712;2023-07-02T12:13:18;36.90;55.90
22925;DHT22;11628;51.072;3.712;2023-07-02T12:15:43;36.80;56.70
22925;DHT22;11628;51.072;3.712;2023-07-02T12:18:10;36.80;57.20
22925;DHT22;11628;51.072;3.712;2023-07-02T12:20:35;35.20;57.80
22925;DHT22;11628;51.072;3.712;2023-07-02T12:23:01;34.20;59.40
22925;DHT22;11628;51.072;3.712;2023-07-02T12:25:27;34.70;59.10
22925;DHT22;11628;51.072;3.712;2023-07-02T12:27:53;35.60;58.40
22925;DHT22;11628;51.072;3.712;2023-07-02T12:30:19;38.00;56.30
22925;DHT22;11628;51.072;3.712;2023-07-02T12:32:45;39.60;54.70
22925;DHT22;11628;51.072;3.712;2023-07-02T12:35:11;39.60;53.40
22925;DHT22;11628;51.072;3.712;2023-07-02T12:37:50;38.10;54.00
22925;DHT22;11628;51.072;3.712;2023-07-02T12:40:17;35.30;57.00
22925;DHT22;11628;51.072;3.712;2023-07-02T12:42:44;35.40;56.60
22925;DHT22;11628;51.072;3.712;2023-07-02T12:45:11;34.80;57.60
22925;DHT22;11628;51.072;3.712;2023-07-02T12:47:38;36.00;57.00
22925;DHT22;11628;51.072;3.712;2023-07-02T12:50:04;37.30;56.20
22925;DHT22;11628;51.072;3.712;2023-07-02T12:52:30;39.00;54.20
22925;DHT22;11628;51.072;3.712;2023-07-02T12:54:56;39.20;53.40
22925;DHT22;11628;51.072;3.712;2023-07-02T12:57:22;40.40;52.70
22925;DHT22;11628;51.072;3.712;2023-07-02T12:59:48;37.90;53.40
22925;DHT22;11628;51.072;3.712;2023-07-02T13:02:13;36.60;55.10
22925;DHT22;11628;51.072;3.712;2023-07-02T13:04:39;35.00;56.90
22925;DHT22;11628;51.072;3.712;2023-07-02T13:07:05;34.50;57.10
22925;DHT22;11628;51.072;3.712;2023-07-02T13:09:31;34.60;57.80
22925;DHT22;11628;51.072;3.712;2023-07-02T13:11:57;33.60;57.60
22925;DHT22;11628;51.072;3.712;2023-07-02T13:14:22;33.10;59.10
22925;DHT22;11628;51.072;3.712;2023-07-02T13:16:48;32.60;58.70
22925;DHT22;11628;51.072;3.712;2023-07-02T13:19:16;32.50;58.80
22925;DHT22;11628;51.072;3.712;2023-07-02T13:21:42;33.90;58.20
22925;DHT22;11628;51.072;3.712;2023-07-02T13:24:07;35.30;56.40
22925;DHT22;11628;51.072;3.712;2023-07-02T13:26:33;36.70;55.30
22925;DHT22;11628;51.072;3.712;2023-07-02T13:28:59;37.00;55.10
22925;DHT22;11628;51.072;3.712;2023-07-02T13:31:25;36.10;54.90
22925;DHT22;11628;51.072;3.712;2023-07-02T13:33:50;35.90;55.50
22925;DHT22;11628;51.072;3.712;2023-07-02T13:36:16;35.80;55.60
22925;DHT22;11628;51.072;3.712;2023-07-02T13:38:42;35.80;55.20
22925;DHT22;11628;51.072;3.712;2023-07-02T13:41:08;36.00;55.00
22925;DHT22;11628;51.072;3.712;2023-07-02T13:43:34;36.50;54.70
22925;DHT22;11628;51.072;3.712;2023-07-02T13:46:00;34.10;56.30
22925;DHT22;11628;51.072;3.712;2023-07-02T13:48:26;33.60;57.00
22925;DHT22;11628;51.072;3.712;2023-07-02T13:50:51;33.00;57.70
22925;DHT22;11628;51.072;3.712;2023-07-02T13:53:17;33.30;57.30
22925;DHT22;11628;51.072;3.712;2023-07-02T13:55:43;34.10;57.20
22925;DHT22;11628;51.072;3.712;2023-07-02T13:58:08;34.00;57.60
22925;DHT22;11628;51.072;3.712;2023-07-02T14:00:34;34.70;56.40
22925;DHT22;11628;51.072;3.712;2023-07-02T14:03:00;34.00;56.50
22925;DHT22;11628;51.072;3.712;2023-07-02T14:05:27;33.20;57.60
22925;DHT22;11628;51.072;3.712;2023-07-02T14:07:52;33.00;56.90
22925;DHT22;11628;51.072;3.712;2023-07-02T14:10:18;32.80;57.30
22925;DHT22;11628;51.072;3.712;2023-07-02T14:12:44;32.40;58.00
22925;DHT22;11628;51.072;3.712;2023-07-02T14:15:10;32.20;58.80
22925;DHT22;11628;51.072;3.712;2023-07-02T14:17:36;31.80;59.40
22925;DHT22;11628;51.072;3.712;2023-07-02T14:20:03;31.60;59.80
22925;DHT22;11628;51.072;3.712;2023-07-02T14:22:29;31.70;60.20
22925;DHT22;11628;51.072;3.712;2023-07-02T14:24:54;32.40;59.50
22925;DHT22;11628;51.072;3.712;2023-07-02T14:27:20;32.80;59.20
22925;DHT22;11628;51.072;3.712;2023-07-02T14:29:46;32.10;60.30
22925;DHT22;11628;51.072;3.712;2023-07-02T14:32:15;32.20;60.00
22925;DHT22;11628;51.072;3.712;2023-07-02T14:34:41;32.10;59.60
22925;DHT22;11628;51.072;3.712;2023-07-02T14:37:07;31.60;60.30
22925;DHT22;11628;51.072;3.712;2023-07-02T14:39:32;31.00;61.70
22925;DHT22;11628;51.072;3.712;2023-07-02T14:41:58;30.70;62.80
22925;DHT22;11628;51.072;3.712;2023-07-02T14:44:24;31.00;62.30
22925;DHT22;11628;51.072;3.712;2023-07-02T14:46:50;31.50;60.30
22925;DHT22;11628;51.072;3.712;2023-07-02T14:49:16;31.40;60.70
22925;DHT22;11628;51.072;3.712;2023-07-02T14:51:42;32.10;60.30
22925;DHT22;11628;51.072;3.712;2023-07-02T14:54:09;31.70;60.90
22925;DHT22;11628;51.072;3.712;2023-07-02T14:56:34;30.80;62.00
22925;DHT22;11628;51.072;3.712;2023-07-02T14:59:03;30.20;62.80
22925;DHT22;11628;51.072;3.712;2023-07-02T15:01:30;29.70;63.40
22925;DHT22;11628;51.072;3.712;2023-07-02T15:03:55;29.80;63.50
22925;DHT22;11628;51.072;3.712;2023-07-02T15:06:21;30.20;63.00
22925;DHT22;11628;51.072;3.712;2023-07-02T15:08:47;30.90;62.30
22925;DHT22;11628;51.072;3.712;2023-07-02T15:11:14;31.10;61.40
22925;DHT22;11628;51.072;3.712;2023-07-02T15:13:40;31.40;61.20
22925;DHT22;11628;51.072;3.712;2023-07-02T15:16:08;31.00;61.50
22925;DHT22;11628;51.072;3.712;2023-07-02T15:18:34;30.70;62.60
22925;DHT22;11628;51.072;3.712;2023-07-02T15:21:00;30.20;63.70
22925;DHT22;11628;51.072;3.712;2023-07-02T15:23:27;30.00;64.80
22925;DHT22;11628;51.072;3.712;2023-07-02T15:25:56;30.60;63.80
22925;DHT22;11628;51.072;3.712;2023-07-02T15:28:22;30.50;62.50
22925;DHT22;11628;51.072;3.712;2023-07-02T15:31:00;30.10;62.60